createdAt,value
2019-02-25T00:00:49.859Z,9.3
2019-02-25T00:02:49.926Z,9.3
2019-02-25T00:04:49.537Z,8.9
2019-02-25T00:06:49.716Z,9.2
2019-02-25T00:08:49.699Z,9.2
2019-02-25T00:10:49.726Z,9.7
2019-02-25T00:12:49.917Z,9.4
2019-02-25T00:14:49.969Z,9.0
2019-02-25T00:16:50.083Z,9.1
2019-02-25T00:18:50.176Z,9.1
2019-02-25T00:20:50.199Z,8.8
2019-02-25T00:22:50.247Z,8.9
2019-02-25T00:24:50.260Z,8.6
2019-02-25T00:26:50.382Z,9.2
2019-02-25T00:28:49.529Z,9.2
2019-02-25T00:30:49.726Z,8.5
2019-02-25T00:32:49.764Z,9.0
2019-02-25T00:34:50.101Z,9.2
2019-02-25T00:36:50.248Z,9.2
2019-02-25T00:38:50.336Z,8.9
2019-02-25T00:40:50.213Z,8.9
2019-02-25T00:42:50.229Z,8.9
2019-02-25T00:44:50.332Z,8.9
2019-02-25T00:46:49.594Z,9.3
2019-02-25T00:48:49.574Z,8.7
2019-02-25T00:50:49.659Z,8.6
2019-02-25T00:52:49.672Z,9.8
2019-02-25T00:54:50.499Z,8.9
2019-02-25T00:56:49.524Z,8.9
2019-02-25T00:58:50.409Z,8.7
2019-02-25T01:00:50.379Z,9.1
2019-02-25T01:02:50.216Z,9.3
2019-02-25T01:04:50.471Z,9.3
2019-02-25T01:06:49.692Z,8.8
2019-02-25T01:08:49.841Z,8.7
2019-02-25T01:10:49.937Z,8.9
2019-02-25T01:12:50.072Z,8.7
2019-02-25T01:14:50.179Z,8.7
2019-02-25T01:16:50.365Z,9.1
2019-02-25T01:18:50.445Z,8.8
2019-02-25T01:20:50.333Z,8.8
2019-02-25T01:22:50.331Z,9.1
2019-02-25T01:24:50.403Z,9.1
2019-02-25T01:26:49.617Z,8.8
2019-02-25T01:28:49.798Z,8.9
2019-02-25T01:30:49.848Z,9.3
2019-02-25T01:32:49.644Z,9.4
2019-02-25T01:34:49.995Z,9.4
2019-02-25T01:36:50.171Z,8.5
2019-02-25T01:38:50.249Z,9.1
2019-02-25T01:40:50.201Z,9.1
2019-02-25T01:42:50.271Z,9.1
2019-02-25T01:44:50.345Z,9.3
2019-02-25T01:46:50.517Z,9.5
2019-02-25T01:48:50.473Z,8.8
2019-02-25T01:50:49.517Z,9.1
2019-02-25T01:52:49.802Z,8.8
2019-02-25T01:54:49.770Z,8.8
2019-02-25T01:56:49.887Z,8.9
2019-02-25T01:58:50.024Z,9.5
2019-02-25T02:00:50.179Z,9.3
2019-02-25T02:02:50.284Z,9.6
2019-02-25T02:04:50.021Z,9.6
2019-02-25T02:06:50.244Z,9.9
2019-02-25T02:08:50.423Z,9.7
2019-02-25T02:10:50.434Z,9.7
2019-02-25T02:12:50.292Z,9.1
2019-02-25T02:14:50.373Z,9.1
2019-02-25T02:16:49.840Z,8.8
2019-02-25T02:18:49.911Z,9.2
2019-02-25T02:20:50.072Z,9.0
2019-02-25T02:22:50.195Z,9.0
2019-02-25T02:24:50.366Z,9.2
2019-02-25T02:26:49.706Z,9.1
2019-02-25T02:28:50.061Z,8.9
2019-02-25T02:30:50.188Z,8.9
2019-02-25T02:32:50.270Z,8.8
2019-02-25T02:34:49.598Z,9.0
2019-02-25T02:36:49.868Z,8.6
2019-02-25T02:38:49.878Z,9.4
2019-02-25T02:40:49.809Z,9.4
2019-02-25T02:42:49.811Z,9.0
2019-02-25T02:44:49.869Z,9.0
2019-02-25T02:46:49.980Z,8.9
2019-02-25T02:48:49.595Z,8.6
2019-02-25T02:50:49.557Z,8.6
2019-02-25T02:52:49.689Z,8.1
2019-02-25T02:54:49.834Z,9.1
2019-02-25T02:56:50.177Z,8.6
2019-02-25T02:58:50.265Z,8.8
2019-02-25T03:00:50.420Z,8.8
2019-02-25T03:02:49.540Z,8.8
2019-02-25T03:04:50.060Z,8.8
2019-02-25T03:06:50.352Z,8.8
2019-02-25T03:08:50.017Z,8.3
2019-02-25T03:10:50.025Z,8.7
2019-02-25T03:12:50.116Z,8.7
2019-02-25T03:14:50.181Z,8.1
2019-02-25T03:16:50.402Z,8.4
2019-02-25T03:18:50.426Z,8.3
2019-02-25T03:20:49.568Z,8.3
2019-02-25T03:22:49.699Z,8.3
2019-02-25T03:24:49.930Z,8.2
2019-02-25T03:26:50.215Z,8.3
2019-02-25T03:28:50.228Z,8.3
2019-02-25T03:30:50.286Z,8.2
2019-02-25T03:32:50.441Z,9.0
2019-02-25T03:34:50.154Z,8.7
2019-02-25T03:36:50.351Z,8.8
2019-02-25T03:38:50.311Z,8.5
2019-02-25T03:40:50.442Z,8.5
2019-02-25T03:42:50.380Z,8.0
2019-02-25T03:44:50.305Z,8.2
2019-02-25T03:46:50.421Z,8.7
2019-02-25T03:48:49.576Z,8.7
2019-02-25T03:50:49.709Z,8.2
2019-02-25T03:52:49.751Z,7.7
2019-02-25T03:54:49.817Z,8.1
2019-02-25T03:56:49.854Z,8.0
2019-02-25T03:58:49.818Z,8.0
2019-02-25T04:00:49.678Z,8.2
2019-02-25T04:02:50.521Z,7.9
2019-02-25T04:04:49.717Z,8.2
2019-02-25T04:06:49.694Z,8.2
2019-02-25T04:08:49.554Z,7.7
2019-02-25T04:10:50.348Z,8.1
2019-02-25T04:12:50.339Z,8.1
2019-02-25T04:14:50.163Z,8.1
2019-02-25T04:16:50.344Z,8.1
2019-02-25T04:18:50.228Z,8.0
2019-02-25T04:20:50.070Z,7.9
2019-02-25T04:22:49.891Z,7.5
2019-02-25T04:24:49.891Z,7.5
2019-02-25T04:26:49.811Z,7.5
2019-02-25T04:28:49.658Z,7.5
2019-02-25T04:30:49.540Z,7.1
2019-02-25T04:32:49.586Z,7.4
2019-02-25T04:34:49.850Z,7.7
2019-02-25T04:36:49.825Z,7.7
2019-02-25T04:38:49.745Z,7.2
2019-02-25T04:40:49.668Z,8.0
2019-02-25T04:42:49.544Z,7.3
2019-02-25T04:44:51.483Z,7.3
2019-02-25T04:46:49.551Z,7.6
2019-02-25T04:48:50.554Z,7.5
2019-02-25T04:50:50.466Z,7.2
2019-02-25T04:52:50.319Z,7.4
2019-02-25T04:54:50.208Z,7.4
2019-02-25T04:56:50.325Z,7.7
2019-02-25T04:58:50.170Z,7.0
2019-02-25T05:00:50.032Z,7.1
2019-02-25T05:02:49.920Z,7.7
2019-02-25T05:04:50.055Z,7.7
2019-02-25T05:06:49.937Z,7.3
2019-02-25T05:08:49.832Z,7.4
2019-02-25T05:10:49.687Z,7.4
2019-02-25T05:12:49.752Z,7.8
2019-02-25T05:14:49.766Z,7.8
2019-02-25T05:16:49.960Z,7.8
2019-02-25T05:18:49.779Z,7.6
2019-02-25T05:20:49.641Z,8.0
2019-02-25T05:22:49.545Z,7.5
2019-02-25T05:24:49.559Z,7.5
2019-02-25T05:26:49.979Z,7.6
2019-02-25T05:28:50.021Z,7.5
2019-02-25T05:30:50.179Z,7.7
2019-02-25T05:32:50.272Z,7.1
2019-02-25T05:34:49.935Z,7.1
2019-02-25T05:36:50.119Z,7.2
2019-02-25T05:38:49.995Z,7.2
2019-02-25T05:40:49.864Z,7.5
2019-02-25T05:42:49.804Z,7.5
2019-02-25T05:44:49.798Z,7.5
2019-02-25T05:46:49.815Z,7.3
2019-02-25T05:48:49.675Z,7.5
2019-02-25T05:50:49.769Z,7.3
2019-02-25T05:52:49.653Z,7.3
2019-02-25T05:54:49.637Z,7.4
2019-02-25T05:56:49.742Z,7.7
2019-02-25T05:58:49.671Z,7.5
2019-02-25T06:00:49.580Z,6.9
2019-02-25T06:02:49.624Z,6.9
2019-02-25T06:04:49.886Z,7.6
2019-02-25T06:06:49.907Z,8.2
2019-02-25T06:08:49.823Z,8.0
2019-02-25T06:10:49.829Z,7.8
2019-02-25T06:12:49.676Z,7.8
2019-02-25T06:14:49.599Z,8.0
2019-02-25T06:16:49.699Z,8.4
2019-02-25T06:18:49.668Z,7.8
2019-02-25T06:20:49.657Z,7.2
2019-02-25T06:22:49.686Z,7.2
2019-02-25T06:24:49.702Z,7.8
2019-02-25T06:26:49.994Z,8.2
2019-02-25T06:28:49.933Z,8.4
2019-02-25T06:30:49.945Z,8.4
2019-02-25T06:32:49.958Z,7.7
2019-02-25T06:34:50.489Z,8.1
2019-02-25T06:36:50.383Z,8.0
2019-02-25T06:38:50.379Z,8.8
2019-02-25T06:40:49.551Z,8.3
2019-02-25T06:42:50.508Z,8.3
2019-02-25T06:44:49.531Z,9.0
2019-02-25T06:46:49.723Z,9.1
2019-02-25T06:48:49.834Z,9.3
2019-02-25T06:50:49.902Z,9.4
2019-02-25T06:52:49.939Z,9.4
2019-02-25T06:54:49.897Z,9.3
2019-02-25T06:56:50.124Z,9.0
2019-02-25T06:58:50.280Z,9.3
2019-02-25T07:00:50.299Z,9.3
2019-02-25T07:02:50.392Z,9.8
2019-02-25T07:04:50.003Z,10.0
2019-02-25T07:06:50.144Z,10.1
2019-02-25T07:08:50.181Z,10.1
2019-02-25T07:10:50.152Z,10.1
2019-02-25T07:12:50.173Z,10.3
2019-02-25T07:14:50.246Z,10.4
2019-02-25T07:16:50.361Z,11.0
2019-02-25T07:18:50.493Z,10.7
2019-02-25T07:20:49.543Z,10.7
2019-02-25T07:22:49.644Z,10.0
2019-02-25T07:24:53.232Z,10.9
2019-02-25T07:26:50.435Z,10.2
2019-02-25T07:28:50.481Z,10.3
2019-02-25T07:30:50.505Z,10.3
2019-02-25T07:32:49.541Z,10.4
2019-02-25T07:34:50.200Z,10.4
2019-02-25T07:36:50.327Z,10.0
2019-02-25T07:38:50.301Z,10.0
2019-02-25T07:40:50.356Z,9.4
2019-02-25T07:42:50.312Z,9.7
2019-02-25T07:44:50.333Z,9.8
2019-02-25T07:46:50.453Z,9.8
2019-02-25T07:48:49.543Z,9.4
2019-02-25T07:50:49.654Z,9.9
2019-02-25T07:52:49.606Z,9.7
2019-02-25T07:54:49.647Z,10.3
2019-02-25T07:56:49.574Z,10.0
2019-02-25T07:58:49.744Z,10.0
2019-02-25T08:00:49.970Z,10.2
2019-02-25T08:02:50.191Z,10.0
2019-02-25T08:04:49.698Z,10.2
2019-02-25T08:06:49.911Z,11.0
2019-02-25T08:08:50.119Z,11.0
2019-02-25T08:10:50.356Z,10.8
2019-02-25T08:12:50.474Z,10.8
2019-02-25T08:14:49.711Z,10.5
2019-02-25T08:16:49.631Z,10.5
2019-02-25T08:18:50.115Z,10.6
2019-02-25T08:20:50.415Z,11.9
2019-02-25T08:22:50.235Z,10.9
2019-02-25T08:24:49.608Z,10.9
2019-02-25T08:26:49.950Z,13.2
2019-02-25T08:28:49.922Z,12.2
2019-02-25T08:30:50.096Z,12.7
2019-02-25T08:32:50.210Z,11.7
2019-02-25T08:34:49.810Z,12.5
2019-02-25T08:36:49.783Z,12.5
2019-02-25T08:38:49.731Z,12.1
2019-02-25T08:40:49.800Z,12.1
2019-02-25T08:42:49.757Z,11.6
2019-02-25T08:44:49.994Z,11.6
2019-02-25T08:46:50.346Z,12.3
2019-02-25T08:48:50.494Z,12.3
2019-02-25T08:50:49.680Z,11.6
2019-02-25T08:52:49.868Z,10.5
2019-02-25T08:54:50.021Z,10.5
2019-02-25T08:56:50.352Z,11.2
2019-02-25T08:58:49.677Z,10.4
2019-02-25T09:00:49.888Z,10.0
2019-02-25T09:02:50.174Z,11.0
2019-02-25T09:04:50.015Z,10.1
2019-02-25T09:06:50.359Z,10.1
2019-02-25T09:08:49.611Z,11.1
2019-02-25T09:10:49.715Z,11.1
2019-02-25T09:12:49.979Z,10.8
2019-02-25T09:14:50.186Z,10.4
2019-02-25T09:16:49.550Z,10.4
2019-02-25T09:18:49.707Z,10.8
2019-02-25T09:20:49.898Z,11.3
2019-02-25T09:22:50.125Z,10.7
2019-02-25T09:24:50.352Z,11.2
2019-02-25T09:26:50.386Z,11.2
2019-02-25T09:28:49.533Z,10.9
2019-02-25T09:30:49.801Z,10.7
2019-02-25T09:32:49.968Z,10.6
2019-02-25T09:34:49.596Z,10.6
2019-02-25T09:36:50.571Z,10.8
2019-02-25T09:38:50.249Z,10.3
2019-02-25T09:40:50.499Z,10.7
2019-02-25T09:42:49.883Z,10.0
2019-02-25T09:44:49.890Z,10.0
2019-02-25T09:46:49.759Z,9.8
2019-02-25T09:48:50.079Z,10.6
2019-02-25T09:50:50.339Z,9.8
2019-02-25T09:52:49.604Z,9.8
2019-02-25T09:54:49.896Z,10.6
2019-02-25T09:56:49.942Z,10.4
2019-02-25T09:58:52.136Z,10.3
2019-02-25T10:00:50.411Z,9.8
2019-02-25T10:02:49.652Z,9.8
2019-02-25T10:04:50.128Z,11.5
2019-02-25T10:06:50.418Z,10.8
2019-02-25T10:08:49.800Z,10.8
2019-02-25T10:10:49.973Z,11.0
2019-02-25T10:12:50.336Z,10.9
2019-02-25T10:14:50.178Z,10.9
2019-02-25T10:16:49.536Z,10.7
2019-02-25T10:18:49.771Z,10.8
2019-02-25T10:20:49.952Z,11.7
2019-02-25T10:22:49.613Z,11.7
2019-02-25T10:24:49.863Z,11.3
2019-02-25T10:26:50.105Z,11.4
2019-02-25T10:28:50.261Z,11.7
2019-02-25T10:30:53.353Z,11.8
2019-02-25T10:32:49.543Z,11.8
2019-02-25T10:34:50.279Z,11.2
2019-02-25T10:36:52.353Z,12.5
2019-02-25T10:38:49.641Z,11.1
2019-02-25T10:40:53.831Z,11.2
2019-02-25T10:42:50.176Z,11.2
2019-02-25T10:44:50.406Z,11.2
2019-02-25T10:46:50.418Z,10.8
2019-02-25T10:48:54.824Z,10.1
2019-02-25T10:50:56.412Z,10.1
2019-02-25T10:52:49.770Z,10.7
2019-02-25T10:54:53.660Z,10.9
2019-02-25T10:56:54.042Z,10.5
2019-02-25T10:58:49.919Z,10.5
2019-02-25T11:00:50.092Z,11.9
2019-02-25T11:02:53.516Z,10.7
2019-02-25T11:04:53.080Z,10.1
2019-02-25T11:06:50.026Z,9.6
2019-02-25T11:08:50.184Z,9.6
2019-02-25T11:10:53.141Z,9.6
2019-02-25T11:12:50.003Z,9.4
2019-02-25T11:14:50.382Z,9.1
2019-02-25T11:16:52.185Z,9.6
2019-02-25T11:18:54.054Z,9.4
2019-02-25T11:20:49.853Z,9.4
2019-02-25T11:22:49.960Z,8.9
2019-02-25T11:24:53.389Z,9.2
2019-02-25T11:26:50.013Z,8.6
2019-02-25T11:28:50.153Z,10.0
2019-02-25T11:30:53.855Z,10.0
2019-02-25T11:32:55.485Z,8.7
2019-02-25T11:34:50.354Z,9.0
2019-02-25T11:36:52.646Z,9.3
2019-02-25T11:38:49.604Z,9.2
2019-02-25T11:40:49.824Z,9.2
2019-02-25T11:42:49.935Z,9.2
2019-02-25T11:44:53.717Z,8.7
2019-02-25T11:46:50.443Z,10.0
2019-02-25T11:48:49.613Z,10.0
2019-02-25T11:50:49.874Z,8.8
2019-02-25T11:52:50.005Z,8.7
2019-02-25T11:54:50.197Z,9.0
2019-02-25T11:56:50.427Z,9.0
2019-02-25T11:58:49.644Z,8.7
2019-02-25T12:00:49.874Z,8.5
2019-02-25T12:02:50.004Z,8.4
2019-02-25T12:04:49.703Z,8.4
2019-02-25T12:06:50.042Z,8.1
2019-02-25T12:08:50.426Z,8.1
2019-02-25T12:10:49.676Z,7.9
2019-02-25T12:12:49.836Z,7.9
2019-02-25T12:14:50.121Z,7.7
2019-02-25T12:16:50.388Z,7.7
2019-02-25T12:18:50.521Z,7.6
2019-02-25T12:20:49.803Z,7.5
2019-02-25T12:22:49.952Z,7.9
2019-02-25T12:24:50.130Z,7.9
2019-02-25T12:26:50.492Z,7.9
2019-02-25T12:28:49.658Z,7.2
2019-02-25T12:30:49.867Z,7.2
2019-02-25T12:32:49.976Z,7.6
2019-02-25T12:34:49.529Z,7.3
2019-02-25T12:36:49.848Z,7.3
2019-02-25T12:38:50.012Z,7.0
2019-02-25T12:40:50.160Z,7.4
2019-02-25T12:42:50.366Z,7.4
2019-02-25T12:44:49.564Z,7.6
2019-02-25T12:46:49.898Z,7.2
2019-02-25T12:48:50.042Z,7.3
2019-02-25T12:50:50.183Z,7.1
2019-02-25T12:52:50.429Z,6.7
2019-02-25T12:54:49.537Z,7.2
2019-02-25T12:56:49.953Z,7.2
2019-02-25T12:58:50.118Z,6.8
2019-02-25T13:00:50.207Z,6.3
2019-02-25T13:02:50.343Z,6.3
2019-02-25T13:04:50.162Z,5.9
2019-02-25T13:06:50.455Z,5.9
2019-02-25T13:08:49.648Z,5.6
2019-02-25T13:10:49.847Z,6.3
2019-02-25T13:12:52.055Z,6.3
2019-02-25T13:14:50.249Z,4.5
2019-02-25T13:16:49.624Z,4.5
2019-02-25T13:18:49.929Z,4.9
2019-02-25T13:20:50.169Z,3.9
2019-02-25T13:22:50.403Z,5.1
2019-02-25T13:24:49.661Z,5.5
2019-02-25T13:26:50.007Z,5.5
2019-02-25T13:28:50.514Z,5.6
2019-02-25T13:30:50.082Z,5.0
2019-02-25T13:32:50.423Z,5.3
2019-02-25T13:34:50.344Z,5.3
2019-02-25T13:36:49.711Z,5.1
2019-02-25T13:38:50.087Z,5.4
2019-02-25T13:40:50.523Z,5.0
2019-02-25T13:42:49.928Z,4.9
2019-02-25T13:44:50.231Z,4.9
2019-02-25T13:46:49.662Z,4.3
2019-02-25T13:48:49.976Z,4.6
2019-02-25T13:50:50.553Z,4.6
2019-02-25T13:52:49.959Z,4.6
2019-02-25T13:54:49.564Z,4.3
2019-02-25T13:56:50.004Z,4.0
2019-02-25T13:58:50.405Z,4.4
2019-02-25T14:00:49.781Z,3.4
2019-02-25T14:02:50.182Z,6.9
2019-02-25T14:04:50.399Z,6.9
2019-02-25T14:06:50.092Z,4.1
2019-02-25T14:08:50.095Z,4.0
2019-02-25T14:10:50.304Z,4.1
2019-02-25T14:12:49.900Z,4.3
2019-02-25T14:14:49.924Z,4.3
2019-02-25T14:16:50.405Z,4.4
2019-02-25T14:18:49.762Z,3.1
2019-02-25T14:20:50.112Z,2.9
2019-02-25T14:22:49.818Z,2.9
2019-02-25T14:24:50.108Z,3.1
2019-02-25T14:26:49.539Z,3.5
2019-02-25T14:28:49.827Z,3.6
2019-02-25T14:30:51.783Z,3.5
2019-02-25T14:32:53.697Z,3.5
2019-02-25T14:34:50.369Z,2.7
2019-02-25T14:36:52.853Z,2.7
2019-02-25T14:38:53.661Z,3.4
2019-02-25T14:40:53.990Z,3.7
2019-02-25T14:42:54.631Z,3.7
2019-02-25T14:44:54.745Z,2.9
2019-02-25T14:46:50.183Z,3.3
2019-02-25T14:48:50.455Z,3.5
2019-02-25T14:50:49.809Z,3.5
2019-02-25T14:52:50.110Z,3.4
2019-02-25T14:54:50.543Z,3.5
2019-02-25T14:56:54.427Z,3.7
2019-02-25T14:58:50.322Z,3.9
2019-02-25T15:00:49.705Z,3.9
2019-02-25T15:02:50.544Z,4.1
2019-02-25T15:04:50.169Z,4.0
2019-02-25T15:06:49.618Z,3.8
2019-02-25T15:08:49.974Z,4.9
2019-02-25T15:10:50.343Z,4.9
2019-02-25T15:12:57.061Z,3.8
2019-02-25T15:14:49.959Z,3.5
2019-02-25T15:16:50.257Z,4.6
2019-02-25T15:18:49.582Z,3.8
2019-02-25T15:20:49.824Z,3.8
2019-02-25T15:22:50.115Z,4.3
2019-02-25T15:24:54.248Z,3.7
2019-02-25T15:26:50.224Z,3.8
2019-02-25T15:28:54.108Z,4.2
2019-02-25T15:30:49.670Z,4.2
2019-02-25T15:32:58.728Z,3.8
2019-02-25T15:34:52.787Z,3.6
2019-02-25T15:36:49.676Z,3.4
2019-02-25T15:38:50.124Z,3.3
2019-02-25T15:40:50.394Z,3.3
2019-02-25T15:42:50.305Z,3.6
2019-02-25T15:44:53.045Z,3.6
2019-02-25T15:46:49.827Z,3.6
2019-02-25T15:48:50.112Z,3.7
2019-02-25T15:50:53.417Z,3.7
2019-02-25T15:52:51.146Z,3.0
2019-02-25T15:54:50.387Z,4.0
2019-02-25T15:56:49.815Z,4.0
2019-02-25T15:58:50.193Z,3.1
2019-02-25T16:00:49.590Z,3.1
2019-02-25T16:02:49.942Z,2.7
2019-02-25T16:04:49.568Z,3.7
2019-02-25T16:06:55.860Z,2.9
2019-02-25T16:08:52.849Z,2.9
2019-02-25T16:10:53.334Z,3.2
2019-02-25T16:12:53.708Z,3.5
2019-02-25T16:14:53.076Z,3.4
2019-02-25T16:16:49.779Z,3.7
2019-02-25T16:18:50.018Z,3.7
2019-02-25T16:20:50.253Z,3.2
2019-02-25T16:22:49.573Z,3.3
2019-02-25T16:24:49.907Z,3.6
2019-02-25T16:26:50.323Z,4.1
2019-02-25T16:28:53.233Z,4.1
2019-02-25T16:30:51.457Z,3.9
2019-02-25T16:32:49.668Z,3.3
2019-02-25T16:34:50.423Z,3.7
2019-02-25T16:36:54.097Z,3.7
2019-02-25T16:38:55.705Z,4.8
2019-02-25T16:40:52.799Z,4.1
2019-02-25T16:42:49.597Z,3.3
2019-02-25T16:44:50.092Z,3.1
2019-02-25T16:46:50.967Z,3.9
2019-02-25T16:48:53.372Z,3.9
2019-02-25T16:50:49.749Z,3.8
2019-02-25T16:52:50.367Z,3.8
2019-02-25T16:54:50.311Z,3.9
2019-02-25T16:56:49.924Z,3.9
2019-02-25T16:58:52.577Z,3.9
2019-02-25T17:00:50.388Z,4.0
2019-02-25T17:02:49.977Z,4.0
2019-02-25T17:04:50.020Z,4.6
2019-02-25T17:06:53.066Z,4.6
2019-02-25T17:08:53.075Z,4.7
2019-02-25T17:10:53.511Z,4.5
2019-02-25T17:12:53.869Z,4.7
2019-02-25T17:14:49.751Z,4.7
2019-02-25T17:16:50.493Z,4.8
2019-02-25T17:18:49.924Z,5.8
2019-02-25T17:20:50.608Z,5.7
2019-02-25T17:22:49.963Z,6.1
2019-02-25T17:24:52.388Z,6.2
2019-02-25T17:26:50.146Z,6.2
2019-02-25T17:28:50.214Z,6.7
2019-02-25T17:30:52.013Z,6.7
2019-02-25T17:32:49.923Z,6.7
2019-02-25T17:34:49.831Z,7.1
2019-02-25T17:36:54.121Z,7.1
2019-02-25T17:38:52.068Z,6.5
2019-02-25T17:40:50.421Z,7.0
2019-02-25T17:42:53.814Z,7.0
2019-02-25T17:44:55.550Z,6.6
2019-02-25T17:46:50.116Z,7.2
2019-02-25T17:48:50.445Z,6.2
2019-02-25T17:50:49.763Z,6.2
2019-02-25T17:52:50.142Z,6.4
2019-02-25T17:54:50.646Z,6.4
2019-02-25T17:56:51.943Z,6.3
2019-02-25T17:58:50.249Z,6.1
2019-02-25T18:00:49.549Z,5.7
2019-02-25T18:02:49.971Z,5.2
2019-02-25T18:04:53.117Z,5.2
2019-02-25T18:06:49.576Z,5.9
2019-02-25T18:08:53.138Z,5.2
2019-02-25T18:10:52.254Z,5.2
2019-02-25T18:12:49.853Z,5.1
2019-02-25T18:14:50.131Z,5.1
2019-02-25T18:16:51.440Z,5.0
2019-02-25T18:18:54.406Z,4.8
2019-02-25T18:20:53.686Z,5.3
2019-02-25T18:22:51.449Z,5.0
2019-02-25T18:24:49.824Z,5.0
2019-02-25T18:26:50.345Z,5.0
2019-02-25T18:28:51.217Z,4.8
2019-02-25T18:30:49.907Z,4.6
2019-02-25T18:32:52.617Z,4.6
2019-02-25T18:34:52.200Z,4.8
2019-02-25T18:36:53.760Z,5.0
2019-02-25T18:38:52.544Z,4.7
2019-02-25T18:40:50.029Z,4.4
2019-02-25T18:42:49.551Z,4.4
2019-02-25T18:44:53.504Z,5.0
2019-02-25T18:46:52.391Z,5.4
2019-02-25T18:48:51.463Z,6.2
2019-02-25T18:50:54.248Z,6.2
2019-02-25T18:52:52.347Z,5.5
2019-02-25T18:54:49.932Z,5.5
2019-02-25T18:56:50.380Z,5.3
2019-02-25T18:58:50.324Z,5.1
2019-02-25T19:00:51.603Z,5.2
2019-02-25T19:02:49.738Z,5.2
2019-02-25T19:04:50.355Z,5.6
2019-02-25T19:06:49.905Z,5.6
2019-02-25T19:08:53.727Z,5.6
2019-02-25T19:10:53.134Z,5.7
2019-02-25T19:12:53.827Z,5.7
2019-02-25T19:14:55.287Z,5.6
2019-02-25T19:16:49.970Z,5.7
2019-02-25T19:18:50.164Z,5.6
2019-02-25T19:20:50.500Z,6.0
2019-02-25T19:22:49.769Z,6.0
2019-02-25T19:24:50.971Z,6.4
2019-02-25T19:26:50.752Z,5.8
2019-02-25T19:28:54.298Z,6.1
2019-02-25T19:30:51.502Z,6.1
2019-02-25T19:32:49.824Z,6.1
2019-02-25T19:34:56.052Z,6.3
2019-02-25T19:36:49.973Z,6.3
2019-02-25T19:38:50.507Z,6.3
2019-02-25T19:40:53.551Z,6.6
2019-02-25T19:42:53.649Z,6.6
2019-02-25T19:44:50.087Z,7.7
2019-02-25T19:46:53.872Z,7.9
2019-02-25T19:48:54.009Z,7.9
2019-02-25T19:50:53.884Z,7.9
2019-02-25T19:52:50.247Z,7.7
2019-02-25T19:54:50.926Z,7.7
2019-02-25T19:56:53.776Z,7.7
2019-02-25T19:58:50.202Z,7.7
2019-02-25T20:00:56.175Z,8.1
2019-02-25T20:02:49.546Z,7.6
2019-02-25T20:04:52.120Z,7.6
2019-02-25T20:06:53.690Z,7.7
2019-02-25T20:08:53.433Z,7.8
2019-02-25T20:10:50.416Z,7.8
2019-02-25T20:12:53.270Z,7.6
2019-02-25T20:14:49.631Z,6.7
2019-02-25T20:16:50.071Z,6.9
2019-02-25T20:18:50.348Z,6.9
2019-02-25T20:20:49.726Z,6.9
2019-02-25T20:22:50.100Z,6.7
2019-02-25T20:24:53.256Z,6.2
2019-02-25T20:26:57.201Z,6.3
2019-02-25T20:28:50.754Z,6.3
2019-02-25T20:30:53.329Z,6.3
2019-02-25T20:32:50.112Z,6.3
2019-02-25T20:34:54.069Z,6.1
2019-02-25T20:36:54.881Z,6.1
2019-02-25T20:38:50.022Z,6.0
2019-02-25T20:40:53.335Z,5.7
2019-02-25T20:42:53.392Z,5.8
2019-02-25T20:44:54.847Z,5.7
2019-02-25T20:46:53.287Z,5.7
2019-02-25T20:48:52.963Z,5.5
2019-02-25T20:50:49.941Z,5.6
2019-02-25T20:52:50.223Z,5.6
2019-02-25T20:54:50.384Z,5.6
2019-02-25T20:56:53.138Z,6.0
2019-02-25T20:58:49.742Z,5.6
2019-02-25T21:00:51.029Z,5.8
2019-02-25T21:02:50.218Z,6.4
2019-02-25T21:04:52.304Z,6.4
2019-02-25T21:06:49.822Z,6.6
2019-02-25T21:08:49.949Z,7.4
2019-02-25T21:10:50.081Z,6.4
2019-02-25T21:12:52.852Z,6.4
2019-02-25T21:14:50.296Z,6.3
2019-02-25T21:16:51.508Z,6.6
2019-02-25T21:18:52.976Z,6.5
2019-02-25T21:20:53.241Z,6.5
2019-02-25T21:22:54.935Z,6.1
2019-02-25T21:24:55.865Z,6.1
2019-02-25T21:26:49.945Z,6.2
2019-02-25T21:28:50.107Z,6.5
2019-02-25T21:30:52.866Z,6.4
2019-02-25T21:32:53.791Z,6.3
2019-02-25T21:34:55.239Z,6.3
2019-02-25T21:36:49.519Z,6.5
2019-02-25T21:38:53.416Z,7.3
2019-02-25T21:40:53.054Z,6.8
2019-02-25T21:42:53.836Z,6.8
2019-02-25T21:44:52.899Z,6.6
2019-02-25T21:46:54.449Z,6.5
2019-02-25T21:48:54.953Z,6.7
2019-02-25T21:50:49.920Z,6.6
2019-02-25T21:52:50.093Z,6.6
2019-02-25T21:54:50.287Z,7.8
2019-02-25T21:56:49.680Z,6.9
2019-02-25T21:58:53.159Z,6.7
2019-02-25T22:00:50.382Z,6.7
2019-02-25T22:02:52.650Z,6.9
2019-02-25T22:04:54.015Z,6.9
2019-02-25T22:06:53.329Z,6.9
2019-02-25T22:08:55.974Z,6.9
2019-02-25T22:10:49.597Z,6.5
2019-02-25T22:12:49.825Z,6.5
2019-02-25T22:14:52.287Z,6.5
2019-02-25T22:16:53.964Z,7.2
2019-02-25T22:18:53.821Z,6.9
2019-02-25T22:20:51.621Z,6.3
2019-02-25T22:22:56.645Z,6.5
2019-02-25T22:24:50.474Z,6.5
2019-02-25T22:26:53.291Z,6.6
2019-02-25T22:28:53.208Z,6.5
2019-02-25T22:30:52.231Z,6.8
2019-02-25T22:32:50.118Z,6.7
2019-02-25T22:34:49.626Z,6.7
2019-02-25T22:36:53.779Z,6.3
2019-02-25T22:38:49.951Z,7.0
2019-02-25T22:40:53.545Z,7.0
2019-02-25T22:42:54.084Z,6.9
2019-02-25T22:44:52.328Z,6.9
2019-02-25T22:46:50.292Z,7.1
2019-02-25T22:48:50.364Z,7.1
2019-02-25T22:50:55.404Z,6.9
2019-02-25T22:52:58.420Z,6.9
2019-02-25T22:54:52.260Z,6.9
2019-02-25T22:56:49.638Z,6.8
2019-02-25T22:58:49.587Z,6.7
2019-02-25T23:00:49.646Z,6.7
2019-02-25T23:02:54.206Z,6.7
2019-02-25T23:04:52.407Z,6.8
2019-02-25T23:06:53.919Z,6.5
2019-02-25T23:08:53.263Z,6.1
2019-02-25T23:10:52.420Z,6.7
2019-02-25T23:12:50.280Z,6.7
2019-02-25T23:14:50.227Z,6.3
2019-02-25T23:16:50.427Z,6.3
2019-02-25T23:18:50.474Z,6.6
2019-02-25T23:20:54.822Z,6.6
2019-02-25T23:22:50.197Z,6.4
2019-02-25T23:24:50.267Z,6.7
2019-02-25T23:26:52.977Z,6.5
2019-02-25T23:28:53.235Z,7.2
2019-02-25T23:30:49.582Z,7.2
2019-02-25T23:32:49.626Z,6.5
2019-02-25T23:34:53.347Z,6.4
2019-02-25T23:36:53.603Z,6.8
2019-02-25T23:38:52.556Z,7.0
2019-02-25T23:40:50.218Z,7.0
2019-02-25T23:42:50.317Z,6.7
2019-02-25T23:44:50.271Z,6.7
2019-02-25T23:46:59.482Z,6.7
2019-02-25T23:48:50.204Z,7.0
2019-02-25T23:50:53.344Z,7.0
2019-02-25T23:52:50.380Z,7.8
2019-02-25T23:54:54.149Z,7.3
2019-02-25T23:56:52.112Z,7.2
2019-02-25T23:58:53.556Z,7.4
